sensor_id;sensor_type;location;lat;lon;timestamp;pressure;altitude;pressure_sealevel;temperature;humidity
33554;BME280;19885;42.208;24.952;2022-09-09T00:00:18;100105.53;;;19.37;64.39
33554;BME280;19885;42.208;24.952;2022-09-09T00:03:14;100103.59;;;19.43;63.50
33554;BME280;19885;42.208;24.952;2022-09-09T00:06:19;100097.31;;;19.49;64.57
33554;BME280;19885;42.208;24.952;2022-09-09T00:11:40;100091.22;;;19.45;63.75
33554;BME280;19885;42.208;24.952;2022-09-09T00:17:04;100109.53;;;19.51;63.54
33554;BME280;19885;42.208;24.952;2022-09-09T00:22:19;100111.25;;;19.54;63.15
33554;BME280;19885;42.208;24.952;2022-09-09T00:24:56;100111.69;;;19.37;63.13
33554;BME280;19885;42.208;24.952;2022-09-09T00:27:36;100108.09;;;19.40;63.06
33554;BME280;19885;42.208;24.952;2022-09-09T00:30:18;100110.66;;;19.43;62.64
33554;BME280;19885;42.208;24.952;2022-09-09T00:32:49;100101.91;;;19.41;62.86
33554;BME280;19885;42.208;24.952;2022-09-09T00:35:25;100114.00;;;19.51;63.43
33554;BME280;19885;42.208;24.952;2022-09-09T00:37:53;100096.69;;;19.38;63.79
33554;BME280;19885;42.208;24.952;2022-09-09T00:41:03;100099.38;;;19.35;64.06
33554;BME280;19885;42.208;24.952;2022-09-09T00:43:30;100107.34;;;19.33;63.78
33554;BME280;19885;42.208;24.952;2022-09-09T00:49:15;100076.31;;;19.06;64.39
33554;BME280;19885;42.208;24.952;2022-09-09T00:59:48;100115.19;;;19.01;65.62
33554;BME280;19885;42.208;24.952;2022-09-09T01:02:26;100122.19;;;19.02;66.18
33554;BME280;19885;42.208;24.952;2022-09-09T01:04:53;100118.88;;;18.94;66.10
33554;BME280;19885;42.208;24.952;2022-09-09T01:07:20;100112.06;;;18.84;66.35
33554;BME280;19885;42.208;24.952;2022-09-09T01:09:52;100108.59;;;18.82;65.38
33554;BME280;19885;42.208;24.952;2022-09-09T01:12:38;100047.88;;;18.40;66.35
33554;BME280;19885;42.208;24.952;2022-09-09T01:15:27;100117.63;;;18.72;67.32
33554;BME280;19885;42.208;24.952;2022-09-09T01:18:07;100116.88;;;18.65;67.41
33554;BME280;19885;42.208;24.952;2022-09-09T01:28:25;100101.44;;;18.47;67.66
33554;BME280;19885;42.208;24.952;2022-09-09T01:30:52;100104.97;;;18.44;67.67
33554;BME280;19885;42.208;24.952;2022-09-09T01:33:18;100105.00;;;18.46;68.52
33554;BME280;19885;42.208;24.952;2022-09-09T01:36:08;100104.13;;;18.45;68.06
33554;BME280;19885;42.208;24.952;2022-09-09T01:38:35;100100.75;;;18.37;68.33
33554;BME280;19885;42.208;24.952;2022-09-09T01:41:01;100099.16;;;18.30;68.67
33554;BME280;19885;42.208;24.952;2022-09-09T01:43:28;100121.78;;;18.40;68.32
33554;BME280;19885;42.208;24.952;2022-09-09T01:45:56;100120.91;;;18.40;68.28
33554;BME280;19885;42.208;24.952;2022-09-09T01:48:24;100116.69;;;18.33;67.80
33554;BME280;19885;42.208;24.952;2022-09-09T01:50:50;100106.38;;;18.21;67.89
33554;BME280;19885;42.208;24.952;2022-09-09T01:53:18;100108.19;;;18.17;68.29
33554;BME280;19885;42.208;24.952;2022-09-09T01:55:53;100109.28;;;18.07;68.63
33554;BME280;19885;42.208;24.952;2022-09-09T02:01:23;100071.63;;;18.01;68.41
33554;BME280;19885;42.208;24.952;2022-09-09T02:03:57;100098.56;;;18.16;68.63
33554;BME280;19885;42.208;24.952;2022-09-09T02:06:37;100088.84;;;18.18;68.45
33554;BME280;19885;42.208;24.952;2022-09-09T02:09:10;100098.47;;;18.21;68.22
33554;BME280;19885;42.208;24.952;2022-09-09T02:11:38;100101.19;;;18.16;68.03
33554;BME280;19885;42.208;24.952;2022-09-09T02:14:10;100087.16;;;18.14;68.36
33554;BME280;19885;42.208;24.952;2022-09-09T02:16:41;100103.72;;;18.21;68.60
33554;BME280;19885;42.208;24.952;2022-09-09T02:21:56;100087.44;;;18.01;68.55
33554;BME280;19885;42.208;24.952;2022-09-09T02:24:23;100100.53;;;18.05;69.74
33554;BME280;19885;42.208;24.952;2022-09-09T02:26:51;100099.63;;;18.06;68.89
33554;BME280;19885;42.208;24.952;2022-09-09T02:29:22;100099.69;;;18.03;69.38
33554;BME280;19885;42.208;24.952;2022-09-09T02:31:51;100101.44;;;18.04;68.83
33554;BME280;19885;42.208;24.952;2022-09-09T02:34:21;100104.97;;;18.03;69.90
33554;BME280;19885;42.208;24.952;2022-09-09T02:36:50;100095.38;;;17.99;68.52
33554;BME280;19885;42.208;24.952;2022-09-09T02:39:17;100101.50;;;18.01;69.81
33554;BME280;19885;42.208;24.952;2022-09-09T02:41:43;100112.84;;;18.05;68.95
33554;BME280;19885;42.208;24.952;2022-09-09T02:44:16;100127.69;;;18.10;68.46
33554;BME280;19885;42.208;24.952;2022-09-09T02:50:31;100085.38;;;17.70;68.55
33554;BME280;19885;42.208;24.952;2022-09-09T02:52:51;100122.88;;;17.86;69.95
33554;BME280;19885;42.208;24.952;2022-09-09T02:55:28;100110.63;;;17.83;69.56
33554;BME280;19885;42.208;24.952;2022-09-09T02:57:58;100088.91;;;17.71;69.57
33554;BME280;19885;42.208;24.952;2022-09-09T03:00:28;100109.78;;;17.83;69.24
33554;BME280;19885;42.208;24.952;2022-09-09T03:02:54;100092.38;;;17.73;69.33
33554;BME280;19885;42.208;24.952;2022-09-09T03:05:20;100103.66;;;17.79;69.00
33554;BME280;19885;42.208;24.952;2022-09-09T03:07:47;100118.56;;;17.82;68.76
33554;BME280;19885;42.208;24.952;2022-09-09T03:10:13;100115.94;;;17.82;69.05
33554;BME280;19885;42.208;24.952;2022-09-09T03:12:39;100119.28;;;17.92;68.58
33554;BME280;19885;42.208;24.952;2022-09-09T03:15:05;100116.72;;;17.87;68.89
33554;BME280;19885;42.208;24.952;2022-09-09T03:17:31;100118.28;;;17.47;69.88
33554;BME280;19885;42.208;24.952;2022-09-09T03:19:57;100107.63;;;17.56;69.35
33554;BME280;19885;42.208;24.952;2022-09-09T03:22:24;100109.31;;;17.60;70.07
33554;BME280;19885;42.208;24.952;2022-09-09T03:24:51;100112.81;;;17.60;69.57
33554;BME280;19885;42.208;24.952;2022-09-09T03:27:17;100122.47;;;17.61;70.22
33554;BME280;19885;42.208;24.952;2022-09-09T03:29:45;100124.38;;;17.52;70.23
33554;BME280;19885;42.208;24.952;2022-09-09T03:32:11;100125.22;;;17.54;70.22
33554;BME280;19885;42.208;24.952;2022-09-09T03:34:38;100137.38;;;17.62;69.78
33554;BME280;19885;42.208;24.952;2022-09-09T03:37:05;100131.31;;;17.57;69.47
33554;BME280;19885;42.208;24.952;2022-09-09T03:39:34;100052.94;;;17.17;69.47
33554;BME280;19885;42.208;24.952;2022-09-09T03:42:00;100122.50;;;17.58;69.30
33554;BME280;19885;42.208;24.952;2022-09-09T03:44:29;100123.50;;;17.51;69.58
33554;BME280;19885;42.208;24.952;2022-09-09T03:46:55;100127.97;;;17.46;69.78
33554;BME280;19885;42.208;24.952;2022-09-09T03:49:21;100126.19;;;17.48;69.64
33554;BME280;19885;42.208;24.952;2022-09-09T03:51:48;100125.34;;;17.46;69.49
33554;BME280;19885;42.208;24.952;2022-09-09T03:54:13;100144.59;;;17.51;69.38
33554;BME280;19885;42.208;24.952;2022-09-09T03:56:39;100141.97;;;17.48;69.50
33554;BME280;19885;42.208;24.952;2022-09-09T03:59:06;100158.63;;;17.52;69.04
33554;BME280;19885;42.208;24.952;2022-09-09T04:01:34;100153.31;;;17.55;69.42
33554;BME280;19885;42.208;24.952;2022-09-09T04:03:59;100139.34;;;17.48;69.62
33554;BME280;19885;42.208;24.952;2022-09-09T04:06:26;100139.34;;;17.47;69.26
33554;BME280;19885;42.208;24.952;2022-09-09T04:08:52;100144.47;;;17.59;69.03
33554;BME280;19885;42.208;24.952;2022-09-09T04:11:17;100120.06;;;17.46;68.96
33554;BME280;19885;42.208;24.952;2022-09-09T04:13:43;100147.94;;;17.61;69.04
33554;BME280;19885;42.208;24.952;2022-09-09T04:16:11;100135.84;;;17.48;68.56
33554;BME280;19885;42.208;24.952;2022-09-09T04:18:38;100149.69;;;17.62;68.54
33554;BME280;19885;42.208;24.952;2022-09-09T04:21:07;100143.50;;;17.64;68.52
33554;BME280;19885;42.208;24.952;2022-09-09T04:23:33;100141.69;;;17.66;68.40
33554;BME280;19885;42.208;24.952;2022-09-09T04:26:01;100131.19;;;17.63;68.94
33554;BME280;19885;42.208;24.952;2022-09-09T04:28:30;100120.66;;;17.63;69.78
33554;BME280;19885;42.208;24.952;2022-09-09T04:30:57;100118.81;;;17.68;68.86
33554;BME280;19885;42.208;24.952;2022-09-09T04:33:24;100123.13;;;17.74;69.11
33554;BME280;19885;42.208;24.952;2022-09-09T04:35:55;100131.69;;;17.85;69.35
33554;BME280;19885;42.208;24.952;2022-09-09T04:38:21;100135.09;;;17.90;69.32
33554;BME280;19885;42.208;24.952;2022-09-09T04:40:49;100149.03;;;17.98;68.82
33554;BME280;19885;42.208;24.952;2022-09-09T04:43:15;100137.66;;;17.95;69.05
33554;BME280;19885;42.208;24.952;2022-09-09T04:45:42;100120.53;;;18.15;68.25
33554;BME280;19885;42.208;24.952;2022-09-09T04:48:08;100131.38;;;18.44;67.26
33554;BME280;19885;42.208;24.952;2022-09-09T04:50:35;100135.19;;;18.73;66.17
33554;BME280;19885;42.208;24.952;2022-09-09T04:53:01;100134.28;;;18.75;66.27
33554;BME280;19885;42.208;24.952;2022-09-09T04:55:27;100136.13;;;18.70;65.99
33554;BME280;19885;42.208;24.952;2022-09-09T04:57:52;100150.16;;;18.72;66.20
33554;BME280;19885;42.208;24.952;2022-09-09T05:00:19;100140.34;;;18.79;66.54
33554;BME280;19885;42.208;24.952;2022-09-09T05:02:44;100150.69;;;18.88;66.57
33554;BME280;19885;42.208;24.952;2022-09-09T05:05:10;100159.38;;;18.94;66.37
33554;BME280;19885;42.208;24.952;2022-09-09T05:07:36;100156.63;;;18.99;66.73
33554;BME280;19885;42.208;24.952;2022-09-09T05:10:02;100147.94;;;18.92;66.44
33554;BME280;19885;42.208;24.952;2022-09-09T05:12:31;100146.13;;;18.96;66.67
33554;BME280;19885;42.208;24.952;2022-09-09T05:14:57;100147.09;;;18.92;67.45
33554;BME280;19885;42.208;24.952;2022-09-09T05:17:23;100168.53;;;19.16;66.74
33554;BME280;19885;42.208;24.952;2022-09-09T05:19:48;100153.19;;;18.95;66.76
33554;BME280;19885;42.208;24.952;2022-09-09T05:22:21;100159.91;;;19.08;67.37
33554;BME280;19885;42.208;24.952;2022-09-09T05:24:49;100151.53;;;19.28;67.26
33554;BME280;19885;42.208;24.952;2022-09-09T05:27:17;100154.72;;;19.42;66.11
33554;BME280;19885;42.208;24.952;2022-09-09T05:29:45;100139.03;;;19.36;64.99
33554;BME280;19885;42.208;24.952;2022-09-09T05:32:12;100135.56;;;19.33;66.57
33554;BME280;19885;42.208;24.952;2022-09-09T05:34:44;100160.41;;;19.62;65.61
33554;BME280;19885;42.208;24.952;2022-09-09T05:37:13;100142.19;;;19.50;66.86
33554;BME280;19885;42.208;24.952;2022-09-09T05:39:42;100144.16;;;19.42;67.44
33554;BME280;19885;42.208;24.952;2022-09-09T05:42:07;100109.81;;;19.04;66.64
33554;BME280;19885;42.208;24.952;2022-09-09T05:44:33;100140.78;;;19.37;66.91
33554;BME280;19885;42.208;24.952;2022-09-09T05:46:59;100157.38;;;19.04;68.51
33554;BME280;19885;42.208;24.952;2022-09-09T05:49:25;100153.19;;;18.95;67.99
33554;BME280;19885;42.208;24.952;2022-09-09T05:51:51;100162.81;;;19.36;67.96
33554;BME280;19885;42.208;24.952;2022-09-09T05:54:18;100164.34;;;19.46;66.24
33554;BME280;19885;42.208;24.952;2022-09-09T05:56:43;100157.34;;;19.44;65.08
33554;BME280;19885;42.208;24.952;2022-09-09T05:59:10;100163.63;;;19.38;66.42
33554;BME280;19885;42.208;24.952;2022-09-09T06:01:40;100145.44;;;19.24;66.34
33554;BME280;19885;42.208;24.952;2022-09-09T06:04:06;100169.84;;;19.72;65.83
33554;BME280;19885;42.208;24.952;2022-09-09T06:06:33;100149.59;;;19.71;65.63
33554;BME280;19885;42.208;24.952;2022-09-09T06:09:04;100141.16;;;19.56;65.23
33554;BME280;19885;42.208;24.952;2022-09-09T06:11:33;100136.69;;;19.59;66.18
33554;BME280;19885;42.208;24.952;2022-09-09T06:14:01;100152.38;;;19.65;65.16
33554;BME280;19885;42.208;24.952;2022-09-09T06:16:29;100128.47;;;19.70;66.95
33554;BME280;19885;42.208;24.952;2022-09-09T06:18:57;100122.28;;;19.71;66.59
33554;BME280;19885;42.208;24.952;2022-09-09T06:21:25;100134.81;;;19.97;65.85
33554;BME280;19885;42.208;24.952;2022-09-09T06:23:51;100122.16;;;19.75;65.87
33554;BME280;19885;42.208;24.952;2022-09-09T06:26:18;100136.97;;;19.81;68.33
33554;BME280;19885;42.208;24.952;2022-09-09T06:28:45;100122.69;;;19.88;67.17
33554;BME280;19885;42.208;24.952;2022-09-09T06:31:15;100129.16;;;20.09;66.17
33554;BME280;19885;42.208;24.952;2022-09-09T06:33:43;100116.06;;;20.04;66.89
33554;BME280;19885;42.208;24.952;2022-09-09T06:36:12;100108.22;;;20.01;66.69
33554;BME280;19885;42.208;24.952;2022-09-09T06:38:38;100112.38;;;20.10;66.81
33554;BME280;19885;42.208;24.952;2022-09-09T06:41:08;100115.59;;;20.21;66.18
33554;BME280;19885;42.208;24.952;2022-09-09T06:43:34;100137.31;;;20.33;66.15
33554;BME280;19885;42.208;24.952;2022-09-09T06:46:20;100150.59;;;20.32;67.36
33554;BME280;19885;42.208;24.952;2022-09-09T06:48:52;100154.91;;;20.36;66.88
33554;BME280;19885;42.208;24.952;2022-09-09T06:51:22;100151.72;;;20.54;67.35
33554;BME280;19885;42.208;24.952;2022-09-09T06:53:51;100142.72;;;20.89;64.88
33554;BME280;19885;42.208;24.952;2022-09-09T06:56:18;100147.19;;;21.16;65.84
33554;BME280;19885;42.208;24.952;2022-09-09T06:58:44;100139.69;;;21.28;63.56
33554;BME280;19885;42.208;24.952;2022-09-09T07:01:18;100145.69;;;21.61;61.08
33554;BME280;19885;42.208;24.952;2022-09-09T07:03:52;100145.25;;;21.49;63.62
33554;BME280;19885;42.208;24.952;2022-09-09T07:06:22;100139.19;;;21.17;64.27
33554;BME280;19885;42.208;24.952;2022-09-09T07:08:52;100152.47;;;21.44;64.50
33554;BME280;19885;42.208;24.952;2022-09-09T07:11:23;100146.56;;;21.62;64.20
33554;BME280;19885;42.208;24.952;2022-09-09T07:13:50;100147.03;;;21.48;62.19
33554;BME280;19885;42.208;24.952;2022-09-09T07:16:18;100166.16;;;21.58;63.85
33554;BME280;19885;42.208;24.952;2022-09-09T07:18:44;100164.16;;;21.90;61.00
33554;BME280;19885;42.208;24.952;2022-09-09T07:21:11;100151.34;;;21.77;60.24
33554;BME280;19885;42.208;24.952;2022-09-09T07:23:38;100145.56;;;21.92;61.40
33554;BME280;19885;42.208;24.952;2022-09-09T07:26:11;100126.25;;;21.61;60.23
33554;BME280;19885;42.208;24.952;2022-09-09T07:28:38;100136.00;;;22.11;60.32
33554;BME280;19885;42.208;24.952;2022-09-09T07:31:04;100149.75;;;22.22;60.20
33554;BME280;19885;42.208;24.952;2022-09-09T07:33:32;100140.47;;;22.34;58.95
33554;BME280;19885;42.208;24.952;2022-09-09T07:36:04;100105.41;;;22.24;59.82
33554;BME280;19885;42.208;24.952;2022-09-09T07:38:30;100144.50;;;22.68;55.40
33554;BME280;19885;42.208;24.952;2022-09-09T07:41:08;100154.53;;;22.84;55.99
33554;BME280;19885;42.208;24.952;2022-09-09T07:43:45;100129.56;;;22.66;58.47
33554;BME280;19885;42.208;24.952;2022-09-09T07:46:12;100135.63;;;22.45;58.44
33554;BME280;19885;42.208;24.952;2022-09-09T07:48:43;100139.63;;;22.56;59.43
33554;BME280;19885;42.208;24.952;2022-09-09T07:51:11;100139.31;;;22.65;59.44
33554;BME280;19885;42.208;24.952;2022-09-09T07:53:38;100149.09;;;23.10;56.85
33554;BME280;19885;42.208;24.952;2022-09-09T07:56:11;100135.28;;;23.22;56.79
33554;BME280;19885;42.208;24.952;2022-09-09T07:58:38;100126.66;;;23.17;55.71
33554;BME280;19885;42.208;24.952;2022-09-09T08:01:16;100141.22;;;23.28;55.97
33554;BME280;19885;42.208;24.952;2022-09-09T08:03:44;100128.84;;;23.06;55.87
33554;BME280;19885;42.208;24.952;2022-09-09T08:06:10;100138.09;;;23.19;57.87
33554;BME280;19885;42.208;24.952;2022-09-09T08:08:38;100112.63;;;23.35;54.61
33554;BME280;19885;42.208;24.952;2022-09-09T08:11:13;100106.84;;;23.46;55.82
33554;BME280;19885;42.208;24.952;2022-09-09T08:13:43;100118.22;;;23.49;55.71
33554;BME280;19885;42.208;24.952;2022-09-09T08:16:17;100117.03;;;23.56;53.55
33554;BME280;19885;42.208;24.952;2022-09-09T08:18:43;100108.53;;;23.88;53.79
33554;BME280;19885;42.208;24.952;2022-09-09T08:21:15;100117.00;;;23.98;53.02
33554;BME280;19885;42.208;24.952;2022-09-09T08:23:44;100115.81;;;23.85;55.36
33554;BME280;19885;42.208;24.952;2022-09-09T08:26:19;100103.34;;;23.85;57.17
33554;BME280;19885;42.208;24.952;2022-09-09T08:28:46;100112.00;;;24.10;55.33
33554;BME280;19885;42.208;24.952;2022-09-09T08:31:18;100108.88;;;24.21;53.35
33554;BME280;19885;42.208;24.952;2022-09-09T08:33:44;100108.47;;;24.49;52.27
33554;BME280;19885;42.208;24.952;2022-09-09T08:36:15;100097.41;;;24.39;51.63
33554;BME280;19885;42.208;24.952;2022-09-09T08:38:42;100099.25;;;24.56;53.85
33554;BME280;19885;42.208;24.952;2022-09-09T08:47:04;100085.94;;;24.93;49.63
33554;BME280;19885;42.208;24.952;2022-09-09T08:52:21;100087.88;;;25.08;51.93
33554;BME280;19885;42.208;24.952;2022-09-09T08:54:47;100090.06;;;25.00;53.19
33554;BME280;19885;42.208;24.952;2022-09-09T08:57:21;100086.59;;;25.34;50.68
33554;BME280;19885;42.208;24.952;2022-09-09T08:59:52;100079.41;;;25.17;51.41
33554;BME280;19885;42.208;24.952;2022-09-09T09:02:26;100027.69;;;25.03;49.28
33554;BME280;19885;42.208;24.952;2022-09-09T09:12:56;100070.94;;;25.26;48.58
33554;BME280;19885;42.208;24.952;2022-09-09T09:15:28;100077.28;;;25.24;51.41
33554;BME280;19885;42.208;24.952;2022-09-09T09:17:55;100063.69;;;25.47;50.73
33554;BME280;19885;42.208;24.952;2022-09-09T09:20:50;100057.16;;;25.70;50.09
33554;BME280;19885;42.208;24.952;2022-09-09T09:23:21;100055.31;;;25.55;48.75
33554;BME280;19885;42.208;24.952;2022-09-09T09:25:47;100070.28;;;25.91;50.90
33554;BME280;19885;42.208;24.952;2022-09-09T09:28:25;100053.75;;;26.17;47.75
33554;BME280;19885;42.208;24.952;2022-09-09T09:35:52;100036.44;;;26.56;46.35
33554;BME280;19885;42.208;24.952;2022-09-09T09:38:24;100045.59;;;26.67;49.05
33554;BME280;19885;42.208;24.952;2022-09-09T09:40:59;100029.66;;;26.81;46.28
33554;BME280;19885;42.208;24.952;2022-09-09T09:43:31;100031.72;;;27.08;44.34
33554;BME280;19885;42.208;24.952;2022-09-09T09:45:57;100026.91;;;27.28;45.42
33554;BME280;19885;42.208;24.952;2022-09-09T09:48:25;100022.75;;;27.68;44.21
33554;BME280;19885;42.208;24.952;2022-09-09T09:50:53;100006.47;;;27.85;44.00
33554;BME280;19885;42.208;24.952;2022-09-09T09:53:27;100007.50;;;27.98;43.18
33554;BME280;19885;42.208;24.952;2022-09-09T09:55:59;100012.75;;;28.14;42.03
33554;BME280;19885;42.208;24.952;2022-09-09T09:58:27;100000.47;;;27.96;43.78
33554;BME280;19885;42.208;24.952;2022-09-09T10:00:54;100003.47;;;28.05;43.15
33554;BME280;19885;42.208;24.952;2022-09-09T10:03:29;100015.91;;;28.35;41.54
33554;BME280;19885;42.208;24.952;2022-09-09T10:05:56;100001.44;;;28.37;42.68
33554;BME280;19885;42.208;24.952;2022-09-09T10:08:23;100005.69;;;28.54;41.90
33554;BME280;19885;42.208;24.952;2022-09-09T10:15:55;99994.19;;;28.52;45.06
33554;BME280;19885;42.208;24.952;2022-09-09T10:18:59;99989.59;;;28.94;43.08
33554;BME280;19885;42.208;24.952;2022-09-09T10:24:16;99967.81;;;29.38;43.03
33554;BME280;19885;42.208;24.952;2022-09-09T10:32:20;99962.69;;;29.86;40.27
33554;BME280;19885;42.208;24.952;2022-09-09T10:40:38;99968.06;;;29.86;40.96
33554;BME280;19885;42.208;24.952;2022-09-09T10:51:33;99969.44;;;30.16;39.45
33554;BME280;19885;42.208;24.952;2022-09-09T10:56:40;99970.44;;;30.03;38.10
33554;BME280;19885;42.208;24.952;2022-09-09T10:59:14;99954.63;;;29.86;38.48
33554;BME280;19885;42.208;24.952;2022-09-09T11:01:51;99948.28;;;29.87;38.28
33554;BME280;19885;42.208;24.952;2022-09-09T11:04:25;99951.06;;;29.73;40.97
33554;BME280;19885;42.208;24.952;2022-09-09T11:06:55;99941.97;;;30.24;38.48
33554;BME280;19885;42.208;24.952;2022-09-09T11:09:24;99940.44;;;30.45;38.58
33554;BME280;19885;42.208;24.952;2022-09-09T11:11:54;99938.59;;;30.69;38.51
33554;BME280;19885;42.208;24.952;2022-09-09T11:14:30;99918.28;;;30.65;38.83
33554;BME280;19885;42.208;24.952;2022-09-09T11:17:02;99917.44;;;30.88;38.64
33554;BME280;19885;42.208;24.952;2022-09-09T11:19:38;99929.25;;;30.98;38.16
33554;BME280;19885;42.208;24.952;2022-09-09T11:22:37;99912.63;;;31.16;35.96
33554;BME280;19885;42.208;24.952;2022-09-09T11:28:32;99917.75;;;31.08;36.71
33554;BME280;19885;42.208;24.952;2022-09-09T11:34:01;99912.25;;;31.44;36.80
33554;BME280;19885;42.208;24.952;2022-09-09T11:44:40;99889.94;;;31.86;35.33
33554;BME280;19885;42.208;24.952;2022-09-09T11:47:39;99888.56;;;31.92;34.34
33554;BME280;19885;42.208;24.952;2022-09-09T11:52:43;99884.31;;;32.00;34.26
33554;BME280;19885;42.208;24.952;2022-09-09T11:55:35;99879.66;;;31.80;34.94
33554;BME280;19885;42.208;24.952;2022-09-09T11:58:04;99878.66;;;31.59;36.97
33554;BME280;19885;42.208;24.952;2022-09-09T12:00:41;99881.13;;;31.84;35.40
33554;BME280;19885;42.208;24.952;2022-09-09T12:03:45;99873.88;;;32.07;35.92
33554;BME280;19885;42.208;24.952;2022-09-09T12:06:19;99857.34;;;31.89;35.89
33554;BME280;19885;42.208;24.952;2022-09-09T12:08:53;99866.00;;;31.37;35.29
33554;BME280;19885;42.208;24.952;2022-09-09T12:11:26;99852.69;;;30.90;37.07
33554;BME280;19885;42.208;24.952;2022-09-09T12:13:57;99858.13;;;30.77;36.64
33554;BME280;19885;42.208;24.952;2022-09-09T12:16:35;99844.53;;;31.14;38.48
33554;BME280;19885;42.208;24.952;2022-09-09T12:19:26;99827.16;;;31.40;36.79
33554;BME280;19885;42.208;24.952;2022-09-09T12:22:00;99803.16;;;31.15;36.03
33554;BME280;19885;42.208;24.952;2022-09-09T12:24:37;99841.41;;;31.42;36.60
33554;BME280;19885;42.208;24.952;2022-09-09T12:30:21;99779.66;;;31.28;36.07
33554;BME280;19885;42.208;24.952;2022-09-09T12:33:06;99827.56;;;31.68;39.12
33554;BME280;19885;42.208;24.952;2022-09-09T12:35:34;99816.38;;;31.18;37.82
33554;BME280;19885;42.208;24.952;2022-09-09T12:38:02;99822.78;;;31.72;36.62
33554;BME280;19885;42.208;24.952;2022-09-09T12:40:32;99818.88;;;31.98;35.53
33554;BME280;19885;42.208;24.952;2022-09-09T12:43:14;99820.63;;;32.20;35.28
33554;BME280;19885;42.208;24.952;2022-09-09T12:45:44;99812.63;;;32.29;34.12
33554;BME280;19885;42.208;24.952;2022-09-09T12:48:34;99786.13;;;32.34;36.13
33554;BME280;19885;42.208;24.952;2022-09-09T12:51:02;99773.66;;;32.22;33.63
33554;BME280;19885;42.208;24.952;2022-09-09T12:53:35;99801.78;;;32.09;34.96
33554;BME280;19885;42.208;24.952;2022-09-09T12:56:08;99802.16;;;32.04;35.53
33554;BME280;19885;42.208;24.952;2022-09-09T12:58:38;99781.94;;;31.88;36.57
33554;BME280;19885;42.208;24.952;2022-09-09T13:01:17;99766.78;;;31.76;35.47
33554;BME280;19885;42.208;24.952;2022-09-09T13:03:44;99785.03;;;31.72;36.36
33554;BME280;19885;42.208;24.952;2022-09-09T13:06:16;99792.66;;;31.56;37.17
33554;BME280;19885;42.208;24.952;2022-09-09T13:08:43;99768.97;;;31.37;38.81
33554;BME280;19885;42.208;24.952;2022-09-09T13:11:41;99777.56;;;31.31;36.89
33554;BME280;19885;42.208;24.952;2022-09-09T13:14:38;99779.91;;;31.25;36.87
33554;BME280;19885;42.208;24.952;2022-09-09T13:17:05;99769.13;;;31.14;37.95
33554;BME280;19885;42.208;24.952;2022-09-09T13:19:36;99766.06;;;31.07;38.48
33554;BME280;19885;42.208;24.952;2022-09-09T13:22:14;99768.38;;;31.00;38.68
33554;BME280;19885;42.208;24.952;2022-09-09T13:24:44;99756.47;;;30.92;38.97
33554;BME280;19885;42.208;24.952;2022-09-09T13:27:40;99771.31;;;31.20;38.68
33554;BME280;19885;42.208;24.952;2022-09-09T13:30:39;99764.34;;;31.28;37.22
33554;BME280;19885;42.208;24.952;2022-09-09T13:35:35;99743.50;;;30.97;37.92
33554;BME280;19885;42.208;24.952;2022-09-09T13:38:14;99756.38;;;31.16;38.23
33554;BME280;19885;42.208;24.952;2022-09-09T13:40:40;99743.16;;;31.13;38.88
33554;BME280;19885;42.208;24.952;2022-09-09T13:43:15;99749.91;;;31.07;39.14
33554;BME280;19885;42.208;24.952;2022-09-09T13:45:53;99755.53;;;31.15;38.04
33554;BME280;19885;42.208;24.952;2022-09-09T13:48:19;99746.22;;;30.97;38.86
33554;BME280;19885;42.208;24.952;2022-09-09T13:50:57;99739.22;;;30.94;39.00
33554;BME280;19885;42.208;24.952;2022-09-09T13:53:23;99733.84;;;30.94;39.24
33554;BME280;19885;42.208;24.952;2022-09-09T13:55:50;99719.19;;;30.98;38.05
33554;BME280;19885;42.208;24.952;2022-09-09T13:58:17;99728.09;;;31.10;39.07
33554;BME280;19885;42.208;24.952;2022-09-09T14:00:44;99730.31;;;31.27;38.77
33554;BME280;19885;42.208;24.952;2022-09-09T14:03:10;99721.97;;;31.30;37.93
33554;BME280;19885;42.208;24.952;2022-09-09T14:05:36;99711.66;;;31.35;38.44
33554;BME280;19885;42.208;24.952;2022-09-09T14:08:06;99708.25;;;31.44;38.38
33554;BME280;19885;42.208;24.952;2022-09-09T14:10:33;99713.28;;;31.49;38.19
33554;BME280;19885;42.208;24.952;2022-09-09T14:13:02;99721.84;;;31.54;38.69
33554;BME280;19885;42.208;24.952;2022-09-09T14:15:28;99710.81;;;31.57;37.80
33554;BME280;19885;42.208;24.952;2022-09-09T14:17:54;99699.91;;;31.58;37.47
33554;BME280;19885;42.208;24.952;2022-09-09T14:20:20;99713.13;;;31.61;37.29
33554;BME280;19885;42.208;24.952;2022-09-09T14:22:46;99722.34;;;31.48;37.31
33554;BME280;19885;42.208;24.952;2022-09-09T14:25:12;99705.16;;;31.38;38.37
33554;BME280;19885;42.208;24.952;2022-09-09T14:27:40;99705.53;;;31.33;37.77
33554;BME280;19885;42.208;24.952;2022-09-09T14:30:06;99697.09;;;31.27;38.39
33554;BME280;19885;42.208;24.952;2022-09-09T14:32:32;99709.63;;;31.28;38.87
33554;BME280;19885;42.208;24.952;2022-09-09T14:34:58;99707.28;;;31.23;38.24
33554;BME280;19885;42.208;24.952;2022-09-09T14:37:23;99709.50;;;31.07;38.51
33554;BME280;19885;42.208;24.952;2022-09-09T14:39:49;99705.94;;;30.95;38.86
33554;BME280;19885;42.208;24.952;2022-09-09T14:42:16;99699.34;;;30.88;39.26
33554;BME280;19885;42.208;24.952;2022-09-09T14:44:41;99700.25;;;30.76;39.40
33554;BME280;19885;42.208;24.952;2022-09-09T14:47:08;99710.16;;;30.65;39.23
33554;BME280;19885;42.208;24.952;2022-09-09T14:49:40;99704.91;;;30.63;40.39
33554;BME280;19885;42.208;24.952;2022-09-09T14:52:05;99695.47;;;30.58;41.01